| time (UTC) | temp F | wind direction | speed knots | gust knots | rain 1hr in | rain 24hr in | rain mn in | humidity % | barometer mb |
| 20260510043340 | 59 | 110 | 0.0 | 0.0 | 0.00 | 0.00 | 0.00 | 75 | 1012.4 |
| 20260510042839 | 59 | 343 | 0.0 | 0.0 | 0.00 | 0.00 | 0.00 | 74 | 1012.8 |
| 20260510042334 | 60 | 343 | 0.0 | 0.0 | 0.00 | 0.00 | 0.00 | 74 | 1012.6 |
| 20260510041831 | 60 | 337 | 0.0 | 0.0 | 0.00 | 0.00 | 0.00 | 74 | 1012.5 |
| 20260510041328 | 60 | 347 | 0.0 | 0.9 | 0.00 | 0.00 | 0.00 | 74 | 1012.6 |
| 20260510040825 | 60 | 343 | 0.0 | 0.0 | 0.00 | 0.00 | 0.00 | 73 | 1012.5 |
| 20260510040322 | 60 | 330 | 0.0 | 0.0 | 0.00 | 0.00 | 0.00 | 73 | 1012.3 |
| 20260510035817 | 60 | 330 | 0.0 | 0.0 | 0.00 | 0.00 | 0.00 | 73 | 1012.5 |
| 20260510035314 | 60 | 330 | 0.0 | 0.0 | 0.00 | 0.00 | 0.00 | 73 | 1012.4 |
| 20260510034809 | 61 | 347 | 0.0 | 0.0 | 0.00 | 0.00 | 0.00 | 72 | 1012.3 |
| 20260510034307 | 61 | 304 | 0.0 | 0.0 | 0.00 | 0.00 | 0.00 | 72 | 1012.6 |
| 20260510033803 | 61 | 311 | 0.0 | 0.0 | 0.00 | 0.00 | 0.00 | 71 | 1012.5 |
| 20260510033301 | 61 | 343 | 0.0 | 0.9 | 0.00 | 0.00 | 0.00 | 71 | 1012.5 |
| 20260510032758 | 61 | 330 | 0.0 | 0.0 | 0.00 | 0.00 | 0.00 | 70 | 1012.5 |
| 20260510032254 | 61 | 330 | 0.0 | 0.0 | 0.00 | 0.00 | 0.00 | 70 | 1012.3 |
| 20260510031750 | 62 | 330 | 0.0 | 0.0 | 0.00 | 0.00 | 0.00 | 70 | 1012.3 |
| 20260510031246 | 62 | 330 | 0.0 | 0.0 | 0.00 | 0.00 | 0.00 | 69 | 1012.3 |
| 20260510030744 | 62 | 330 | 0.0 | 0.0 | 0.00 | 0.00 | 0.00 | 69 | 1012.1 |
| 20260510030237 | 62 | 330 | 0.0 | 0.9 | 0.00 | 0.00 | 0.00 | 68 | 1012.1 |
| 20260510025734 | 62 | 330 | 0.0 | 0.9 | 0.00 | 0.00 | 0.00 | 68 | 1012.0 |
| 20260510025231 | 62 | 330 | 0.0 | 0.9 | 0.00 | 0.00 | 0.00 | 68 | 1012.1 |
| 20260510024728 | 63 | 325 | 0.0 | 0.0 | 0.00 | 0.00 | 0.00 | 67 | 1012.2 |
| 20260510024225 | 63 | 330 | 0.0 | 0.0 | 0.00 | 0.00 | 0.00 | 67 | 1011.9 |
| 20260510023720 | 63 | 71 | 0.0 | 0.9 | 0.00 | 0.00 | 0.00 | 66 | 1011.8 |
| 20260510023218 | 63 | 27 | 0.0 | 0.0 | 0.00 | 0.00 | 0.00 | 66 | 1012.0 |
| 20260510022714 | 64 | 330 | 0.0 | 0.9 | 0.00 | 0.00 | 0.00 | 65 | 1011.8 |
| 20260510022208 | 64 | 327 | 0.0 | 0.0 | 0.00 | 0.00 | 0.00 | 64 | 1011.7 |
| 20260510021703 | 65 | 318 | 0.0 | 1.7 | 0.00 | 0.00 | 0.00 | 63 | 1011.7 |
| 20260510021201 | 64 | 325 | 1.7 | 1.7 | 0.00 | 0.00 | 0.00 | 64 | 1011.6 |
| 20260510020656 | 64 | 324 | 0.0 | 0.9 | 0.00 | 0.00 | 0.00 | 64 | 1011.6 |
| 20260510020151 | 64 | 330 | 0.0 | 0.0 | 0.00 | 0.00 | 0.00 | 64 | 1011.3 |
| 20260510015647 | 64 | 330 | 0.0 | 0.0 | 0.00 | 0.00 | 0.00 | 64 | 1011.3 |
| 20260510015144 | 64 | 330 | 0.0 | 0.0 | 0.00 | 0.00 | 0.00 | 64 | 1011.3 |
| 20260510014644 | 64 | 330 | 0.0 | 0.0 | 0.00 | 0.00 | 0.00 | 63 | 1010.8 |
| 20260510014142 | 65 | 330 | 0.0 | 0.0 | 0.00 | 0.00 | 0.00 | 64 | 1011.2 |
| 20260510013637 | 65 | 251 | 0.0 | 0.0 | 0.00 | 0.00 | 0.00 | 63 | 1011.0 |
| 20260510013133 | 65 | 58 | 0.0 | 0.0 | 0.00 | 0.00 | 0.00 | 63 | 1010.9 |
| 20260510012633 | 65 | 58 | 0.0 | 0.0 | 0.00 | 0.00 | 0.00 | 63 | 1011.0 |
| 20260510012129 | 65 | 336 | 0.0 | 0.0 | 0.00 | 0.00 | 0.00 | 62 | 1010.7 |
| 20260510011628 | 65 | 336 | 0.0 | 0.0 | 0.00 | 0.00 | 0.00 | 62 | 1010.8 |
| 20260510011124 | 66 | 218 | 0.0 | 0.0 | 0.00 | 0.00 | 0.00 | 61 | 1010.8 |
| 20260510010621 | 66 | 218 | 0.0 | 0.0 | 0.00 | 0.00 | 0.00 | 61 | 1010.5 |
| 20260510010118 | 66 | 336 | 0.0 | 0.0 | 0.00 | 0.00 | 0.00 | 60 | 1010.3 |
| 20260510005613 | 66 | 343 | 0.0 | 0.0 | 0.00 | 0.00 | 0.00 | 59 | 1010.4 |
| 20260510005111 | 67 | 6 | 0.0 | 0.0 | 0.00 | 0.00 | 0.00 | 59 | 1010.3 |
| 20260510004609 | 67 | 220 | 0.0 | 1.7 | 0.00 | 0.00 | 0.00 | 59 | 1010.2 |
| 20260510004107 | 67 | 343 | 0.0 | 0.0 | 0.00 | 0.00 | 0.00 | 58 | 1010.1 |
| 20260510003603 | 67 | 267 | 0.0 | 0.0 | 0.00 | 0.00 | 0.00 | 58 | 1010.1 |
| 20260510003059 | 68 | 261 | 0.0 | 0.0 | 0.00 | 0.00 | 0.00 | 58 | 1010.2 |
| 20260510002555 | 68 | 261 | 0.0 | 0.0 | 0.00 | 0.00 | 0.00 | 57 | 1010.1 |
| 20260510002052 | 68 | 251 | 0.0 | 0.0 | 0.00 | 0.00 | 0.00 | 56 | 1010.0 |
| 20260510001549 | 68 | 325 | 0.0 | 0.9 | 0.00 | 0.00 | 0.00 | 56 | 1010.1 |
| 20260510001048 | 69 | 267 | 0.0 | 0.0 | 0.00 | 0.00 | 0.00 | 55 | 1009.9 |
| 20260510000548 | 69 | 304 | 0.0 | 0.9 | 0.00 | 0.00 | 0.00 | 54 | 1009.8 |
| 20260510000044 | 69 | 290 | 0.0 | 0.0 | 0.00 | 0.00 | 0.00 | 53 | 1009.6 |
| 20260509235541 | 70 | 290 | 0.0 | 0.0 | 0.00 | 0.00 | 0.00 | 53 | 1009.7 |
| 20260509235038 | 70 | 264 | 0.0 | 0.9 | 0.00 | 0.00 | 0.00 | 52 | 1009.6 |
| 20260509234534 | 71 | 251 | 0.0 | 0.0 | 0.00 | 0.00 | 0.00 | 51 | 1009.6 |
| 20260509234032 | 71 | 347 | 0.0 | 2.6 | 0.00 | 0.00 | 0.00 | 50 | 1009.8 |
| 20260509233529 | 71 | 238 | 0.0 | 1.7 | 0.00 | 0.00 | 0.00 | 51 | 1009.8 |
| 20260509233026 | 71 | 81 | 0.0 | 0.9 | 0.00 | 0.00 | 0.00 | 52 | 1009.4 |
| 20260509232523 | 71 | 331 | 0.0 | 1.7 | 0.00 | 0.00 | 0.00 | 50 | 1009.6 |
| 20260509232020 | 71 | 264 | 0.0 | 1.7 | 0.00 | 0.00 | 0.00 | 49 | 1009.6 |
| 20260509231516 | 71 | 320 | 0.0 | 1.7 | 0.00 | 0.00 | 0.00 | 50 | 1009.4 |
| 20260509231014 | 72 | 273 | 0.0 | 0.9 | 0.00 | 0.00 | 0.00 | 50 | 1009.7 |
| 20260509230511 | 73 | 266 | 0.0 | 1.7 | 0.00 | 0.00 | 0.00 | 49 | 1009.6 |
| 20260509230008 | 73 | 315 | 0.9 | 1.7 | 0.00 | 0.00 | 0.00 | 48 | 1009.7 |
| 20260509225503 | 73 | 347 | 0.0 | 1.7 | 0.00 | 0.00 | 0.00 | 47 | 1009.7 |
| 20260509224959 | 73 | 293 | 1.7 | 1.7 | 0.00 | 0.00 | 0.00 | 47 | 1009.5 |
| 20260509224454 | 73 | 310 | 1.7 | 1.7 | 0.00 | 0.00 | 0.00 | 47 | 1009.6 |
| 20260509223952 | 74 | 286 | 0.9 | 1.7 | 0.00 | 0.00 | 0.00 | 47 | 1009.6 |
| 20260509223448 | 74 | 305 | 1.7 | 3.5 | 0.00 | 0.00 | 0.00 | 44 | 1009.7 |
| 20260509222946 | 74 | 304 | 0.0 | 1.7 | 0.00 | 0.00 | 0.00 | 46 | 1009.3 |
| 20260509222441 | 74 | 251 | 1.7 | 2.6 | 0.00 | 0.00 | 0.00 | 45 | 1009.5 |
| 20260509221937 | 74 | 201 | 0.0 | 1.7 | 0.00 | 0.00 | 0.00 | 46 | 1009.7 |
| 20260509221434 | 74 | 297 | 1.7 | 6.1 | 0.00 | 0.00 | 0.00 | 43 | 1009.6 |
| 20260509220929 | 75 | 299 | 0.9 | 1.7 | 0.00 | 0.00 | 0.00 | 44 | 1009.6 |
| 20260509220426 | 75 | 50 | 0.0 | 1.7 | 0.00 | 0.00 | 0.00 | 43 | 1009.5 |
| 20260509215922 | 75 | 299 | 1.7 | 4.3 | 0.00 | 0.00 | 0.00 | 43 | 1009.4 |
| 20260509215417 | 75 | 293 | 0.0 | 1.7 | 0.00 | 0.00 | 0.00 | 44 | 1009.4 |
| 20260509214915 | 75 | 305 | 0.0 | 2.6 | 0.00 | 0.00 | 0.00 | 43 | 1009.4 |
| 20260509214412 | 75 | 240 | 0.0 | 1.7 | 0.00 | 0.00 | 0.00 | 44 | 1009.7 |
| 20260509213909 | 75 | 313 | 2.6 | 3.5 | 0.00 | 0.00 | 0.00 | 42 | 1009.5 |
| 20260509213405 | 75 | 27 | 0.0 | 1.7 | 0.00 | 0.00 | 0.00 | 43 | 1009.6 |
| 20260509212903 | 75 | 4 | 0.0 | 1.7 | 0.00 | 0.00 | 0.00 | 43 | 1009.4 |
| 20260509212400 | 76 | 189 | 0.9 | 1.7 | 0.00 | 0.00 | 0.00 | 43 | 1009.4 |
| 20260509211856 | 77 | 306 | 0.9 | 2.6 | 0.00 | 0.00 | 0.00 | 42 | 1009.5 |
| 20260509211352 | 77 | 7 | 0.9 | 1.7 | 0.00 | 0.00 | 0.00 | 41 | 1009.3 |
| 20260509210848 | 76 | 2 | 0.0 | 4.3 | 0.00 | 0.00 | 0.00 | 40 | 1009.3 |
| 20260509210346 | 77 | 145 | 0.0 | 3.5 | 0.00 | 0.00 | 0.00 | 44 | 1009.5 |
| 20260509205846 | 78 | 83 | 1.7 | 2.6 | 0.00 | 0.00 | 0.00 | 40 | 1009.4 |
| 20260509205340 | 79 | 57 | 0.9 | 1.7 | 0.00 | 0.00 | 0.00 | 42 | 1009.2 |
| 20260509204837 | 78 | 149 | 0.9 | 3.5 | 0.00 | 0.00 | 0.00 | 43 | 1009.2 |
| 20260509204333 | 79 | 220 | 0.0 | 2.6 | 0.00 | 0.00 | 0.00 | 39 | 1009.1 |
| 20260509203830 | 79 | 233 | 0.0 | 0.9 | 0.00 | 0.00 | 0.00 | 37 | 1009.2 |
| 20260509203327 | 77 | 146 | 0.9 | 1.7 | 0.00 | 0.00 | 0.00 | 40 | 1009.2 |
| 20260509202823 | 79 | 301 | 0.9 | 1.7 | 0.00 | 0.00 | 0.00 | 39 | 1009.4 |
| 20260509202319 | 78 | 220 | 0.0 | 5.2 | 0.00 | 0.00 | 0.00 | 38 | 1009.0 |
| 20260509201818 | 80 | 236 | 1.7 | 3.5 | 0.00 | 0.00 | 0.00 | 36 | 1009.1 |
| 20260509201316 | 81 | 356 | 0.0 | 1.7 | 0.00 | 0.00 | 0.00 | 36 | 1009.3 |
| 20260509200812 | 80 | 290 | 0.0 | 2.6 | 0.00 | 0.00 | 0.00 | 36 | 1009.4 |
| 20260509200307 | 80 | 258 | 1.7 | 2.6 | 0.00 | 0.00 | 0.00 | 35 | 1009.3 |
| 20260509195804 | 81 | 349 | 0.0 | 1.7 | 0.00 | 0.00 | 0.00 | 38 | 1009.1 |
| 20260509195259 | 80 | 211 | 1.7 | 3.5 | 0.00 | 0.00 | 0.00 | 38 | 1009.3 |
| 20260509194759 | 80 | 182 | 0.9 | 4.3 | 0.00 | 0.00 | 0.00 | 38 | 1009.4 |
| 20260509194255 | 80 | 273 | 1.7 | 3.5 | 0.00 | 0.00 | 0.00 | 36 | 1009.5 |
| 20260509193752 | 79 | 265 | 1.7 | 3.5 | 0.00 | 0.00 | 0.00 | 37 | 1009.4 |
| 20260509193247 | 80 | 228 | 0.9 | 4.3 | 0.00 | 0.00 | 0.00 | 36 | 1009.7 |
| 20260509192743 | 79 | 289 | 3.5 | 4.3 | 0.00 | 0.00 | 0.00 | 35 | 1009.6 |
| 20260509192238 | 80 | 211 | 4.3 | 4.3 | 0.00 | 0.00 | 0.00 | 33 | 1009.5 |
| 20260509191734 | 79 | 171 | 0.9 | 1.7 | 0.00 | 0.00 | 0.00 | 39 | 1009.8 |
| 20260509191231 | 78 | 318 | 0.9 | 3.5 | 0.00 | 0.00 | 0.00 | 39 | 1009.8 |
| 20260509190727 | 77 | 173 | 1.7 | 2.6 | 0.00 | 0.00 | 0.00 | 39 | 1009.8 |
| 20260509190224 | 77 | 276 | 0.9 | 3.5 | 0.00 | 0.00 | 0.00 | 43 | 1009.9 |
| 20260509185721 | 74 | 324 | 2.6 | 3.5 | 0.00 | 0.00 | 0.00 | 40 | 1010.2 |
| 20260509185217 | 77 | 200 | 2.6 | 4.3 | 0.00 | 0.00 | 0.00 | 39 | 1010.0 |
| 20260509184715 | 77 | 336 | 1.7 | 2.6 | 0.00 | 0.00 | 0.00 | 38 | 1010.1 |
| 20260509184212 | 77 | 305 | 2.6 | 4.3 | 0.00 | 0.00 | 0.00 | 38 | 1010.2 |
| 20260509183708 | 77 | 316 | 1.7 | 3.5 | 0.00 | 0.00 | 0.00 | 39 | 1010.3 |
| 20260509183209 | 76 | 224 | 0.9 | 3.5 | 0.00 | 0.00 | 0.00 | 40 | 1010.1 |
| 20260509182705 | 76 | 176 | 1.7 | 3.5 | 0.00 | 0.00 | 0.00 | 41 | 1010.5 |
| 20260509182203 | 75 | 175 | 0.0 | 3.5 | 0.00 | 0.00 | 0.00 | 42 | 1010.9 |
| 20260509181700 | 73 | 352 | 0.9 | 2.6 | 0.00 | 0.00 | 0.00 | 47 | 1010.8 |
| 20260509181157 | 73 | 209 | 2.6 | 3.5 | 0.00 | 0.00 | 0.00 | 47 | 1011.0 |
| 20260509180654 | 74 | 326 | 0.0 | 2.6 | 0.00 | 0.00 | 0.00 | 48 | 1011.0 |
| 20260509180150 | 73 | 325 | 0.0 | 2.6 | 0.00 | 0.00 | 0.00 | 51 | 1011.1 |
| 20260509175647 | 74 | 214 | 1.7 | 2.6 | 0.00 | 0.00 | 0.00 | 47 | 1011.3 |
| 20260509175144 | 75 | 300 | 0.9 | 3.5 | 0.00 | 0.00 | 0.00 | 48 | 1011.4 |
| 20260509174640 | 74 | 325 | 1.7 | 2.6 | 0.00 | 0.00 | 0.00 | 48 | 1011.4 |
| 20260509174140 | 74 | 67 | 2.6 | 2.6 | 0.00 | 0.00 | 0.00 | 52 | 1011.2 |
| 20260509173636 | 74 | 254 | 0.0 | 3.5 | 0.00 | 0.00 | 0.00 | 48 | 1011.6 |
| 20260509173132 | 72 | 340 | 1.7 | 3.5 | 0.00 | 0.00 | 0.00 | 49 | 1011.3 |
| 20260509172628 | 73 | 296 | 1.7 | 7.0 | 0.00 | 0.00 | 0.00 | 48 | 1011.5 |
| 20260509172125 | 73 | 202 | 3.5 | 3.5 | 0.00 | 0.00 | 0.00 | 50 | 1011.7 |
| 20260509171620 | 74 | 339 | 0.0 | 1.7 | 0.00 | 0.00 | 0.00 | 47 | 1011.7 |
| 20260509171117 | 72 | 76 | 0.0 | 2.6 | 0.00 | 0.00 | 0.00 | 50 | 1011.4 |
| 20260509170613 | 74 | 280 | 1.7 | 3.5 | 0.00 | 0.00 | 0.00 | 47 | 1011.9 |
| 20260509170109 | 71 | 289 | 1.7 | 5.2 | 0.00 | 0.00 | 0.00 | 50 | 1011.8 |
| 20260509165608 | 70 | 280 | 0.9 | 1.7 | 0.00 | 0.00 | 0.00 | 53 | 1011.7 |
| 20260509165103 | 69 | 273 | 0.0 | 3.5 | 0.00 | 0.00 | 0.00 | 53 | 1011.7 |
| 20260509164600 | 70 | 70 | 0.0 | 3.5 | 0.00 | 0.00 | 0.00 | 52 | 1011.7 |
| 20260509164055 | 69 | 316 | 1.7 | 5.2 | 0.00 | 0.00 | 0.00 | 52 | 1011.9 |
| 20260509163554 | 71 | 19 | 1.7 | 3.5 | 0.00 | 0.00 | 0.00 | 50 | 1011.8 |
| 20260509163049 | 70 | 173 | 0.0 | 1.7 | 0.00 | 0.00 | 0.00 | 52 | 1012.0 |
| 20260509162546 | 68 | 256 | 0.0 | 1.7 | 0.00 | 0.00 | 0.00 | 54 | 1011.9 |
| 20260509162042 | 68 | 316 | 1.7 | 1.7 | 0.00 | 0.00 | 0.00 | 53 | 1011.8 |
| 20260509161539 | 68 | 312 | 1.7 | 4.3 | 0.00 | 0.00 | 0.00 | 53 | 1012.0 |
| 20260509161039 | 69 | 232 | 1.7 | 1.7 | 0.00 | 0.00 | 0.00 | 55 | 1011.8 |
| 20260509160535 | 69 | 248 | 0.9 | 1.7 | 0.00 | 0.00 | 0.00 | 53 | 1012.1 |
| 20260509160031 | 68 | 104 | 1.7 | 1.7 | 0.00 | 0.00 | 0.00 | 53 | 1011.9 |
| 20260509155527 | 66 | 320 | 1.7 | 2.6 | 0.00 | 0.00 | 0.00 | 55 | 1012.2 |
| 20260509155023 | 66 | 49 | 1.7 | 1.7 | 0.00 | 0.00 | 0.00 | 56 | 1012.0 |
| 20260509154519 | 66 | 319 | 2.6 | 3.5 | 0.00 | 0.00 | 0.00 | 55 | 1012.1 |
| 20260509154017 | 64 | 340 | 1.7 | 3.5 | 0.00 | 0.00 | 0.00 | 58 | 1012.0 |
| 20260509153514 | 64 | 307 | 0.9 | 2.6 | 0.00 | 0.00 | 0.00 | 59 | 1012.2 |
| 20260509153011 | 64 | 158 | 0.9 | 1.7 | 0.00 | 0.00 | 0.00 | 60 | 1012.0 |
| 20260509152506 | 64 | 295 | 0.9 | 4.3 | 0.00 | 0.00 | 0.00 | 57 | 1012.2 |
| 20260509152003 | 65 | 285 | 1.7 | 1.7 | 0.00 | 0.00 | 0.00 | 59 | 1012.3 |
| 20260509151459 | 65 | 170 | 0.0 | 1.7 | 0.00 | 0.00 | 0.00 | 58 | 1012.4 |
| 20260509150958 | 64 | 198 | 0.9 | 1.7 | 0.00 | 0.00 | 0.00 | 59 | 1012.5 |
| 20260509150455 | 64 | 311 | 4.3 | 4.3 | 0.00 | 0.00 | 0.00 | 57 | 1012.7 |
| 20260509145953 | 63 | 94 | 1.7 | 1.7 | 0.00 | 0.00 | 0.00 | 58 | 1012.5 |
| 20260509145448 | 64 | 110 | 0.0 | 2.6 | 0.00 | 0.00 | 0.00 | 56 | 1012.6 |
| 20260509144943 | 66 | 113 | 2.6 | 2.6 | 0.00 | 0.00 | 0.00 | 54 | 1012.4 |
| 20260509144441 | 64 | 324 | 0.0 | 2.6 | 0.00 | 0.00 | 0.00 | 57 | 1012.4 |
| 20260509143938 | 63 | 82 | 1.7 | 4.3 | 0.00 | 0.00 | 0.00 | 56 | 1012.2 |
| 20260509143435 | 62 | 159 | 1.7 | 3.5 | 0.00 | 0.00 | 0.00 | 58 | 1012.2 |
| 20260509142931 | 62 | 89 | 0.9 | 1.7 | 0.00 | 0.00 | 0.00 | 59 | 1012.1 |
| 20260509142428 | 61 | 141 | 0.0 | 2.6 | 0.00 | 0.00 | 0.00 | 61 | 1012.4 |
| 20260509141923 | 60 | 165 | 0.9 | 1.7 | 0.00 | 0.00 | 0.00 | 60 | 1012.5 |
| 20260509141421 | 60 | 352 | 0.0 | 1.7 | 0.00 | 0.00 | 0.00 | 60 | 1012.7 |
| 20260509140918 | 60 | 143 | 1.7 | 2.6 | 0.00 | 0.00 | 0.00 | 60 | 1012.6 |
| 20260509140414 | 60 | 150 | 0.0 | 1.7 | 0.00 | 0.00 | 0.00 | 60 | 1012.8 |
| 20260509135912 | 59 | 316 | 2.6 | 2.6 | 0.00 | 0.00 | 0.00 | 61 | 1012.7 |
| 20260509135409 | 59 | 327 | 0.0 | 4.3 | 0.00 | 0.00 | 0.00 | 60 | 1013.0 |
| 20260509134907 | 58 | 93 | 0.9 | 1.7 | 0.00 | 0.00 | 0.00 | 61 | 1012.8 |
| 20260509134404 | 58 | 145 | 0.0 | 1.7 | 0.00 | 0.00 | 0.00 | 61 | 1012.8 |
| 20260509133901 | 58 | 43 | 0.0 | 0.9 | 0.00 | 0.00 | 0.00 | 63 | 1012.9 |
| 20260509133357 | 58 | 144 | 0.0 | 1.7 | 0.00 | 0.00 | 0.00 | 62 | 1012.9 |
| 20260509132856 | 57 | 133 | 0.9 | 1.7 | 0.00 | 0.00 | 0.00 | 61 | 1013.1 |
| 20260509132354 | 57 | 118 | 0.9 | 1.7 | 0.00 | 0.00 | 0.00 | 62 | 1013.3 |
| 20260509131851 | 57 | 127 | 0.9 | 0.9 | 0.00 | 0.00 | 0.00 | 62 | 1013.0 |
| 20260509131347 | 57 | 163 | 0.0 | 1.7 | 0.00 | 0.00 | 0.00 | 63 | 1013.0 |
| 20260509130844 | 57 | 329 | 0.0 | 0.9 | 0.00 | 0.00 | 0.00 | 62 | 1013.3 |
| 20260509130339 | 57 | 43 | 0.0 | 0.9 | 0.00 | 0.00 | 0.00 | 61 | 1013.0 |
| 20260509125836 | 57 | 329 | 0.0 | 2.6 | 0.00 | 0.00 | 0.00 | 60 | 1013.1 |
| 20260509125333 | 57 | 234 | 0.9 | 3.5 | 0.00 | 0.00 | 0.00 | 60 | 1013.3 |
| 20260509124829 | 57 | 250 | 0.0 | 0.9 | 0.00 | 0.00 | 0.00 | 62 | 1013.1 |
| 20260509124326 | 57 | 76 | 0.0 | 1.7 | 0.00 | 0.00 | 0.00 | 61 | 1013.1 |
| 20260509123824 | 57 | 290 | 0.0 | 1.7 | 0.00 | 0.00 | 0.00 | 60 | 1013.2 |
| 20260509123321 | 56 | 50 | 0.0 | 1.7 | 0.00 | 0.00 | 0.00 | 63 | 1013.1 |
| 20260509122817 | 56 | 179 | 0.9 | 1.7 | 0.00 | 0.00 | 0.00 | 62 | 1013.1 |
| 20260509122314 | 55 | 82 | 1.7 | 1.7 | 0.00 | 0.00 | 0.00 | 64 | 1013.3 |
| 20260509121811 | 55 | 134 | 0.9 | 2.6 | 0.00 | 0.00 | 0.00 | 62 | 1013.3 |
| 20260509121308 | 55 | 290 | 0.0 | 2.6 | 0.00 | 0.00 | 0.00 | 64 | 1013.0 |
| 20260509120807 | 55 | 86 | 0.0 | 0.9 | 0.00 | 0.00 | 0.00 | 63 | 1013.4 |
| 20260509120304 | 55 | 131 | 0.0 | 2.6 | 0.00 | 0.00 | 0.00 | 62 | 1013.3 |
| 20260509115802 | 55 | 114 | 1.7 | 2.6 | 0.00 | 0.00 | 0.00 | 62 | 1013.1 |
| 20260509115258 | 54 | 105 | 1.7 | 1.7 | 0.00 | 0.00 | 0.00 | 63 | 1013.0 |
| 20260509114756 | 54 | 154 | 0.0 | 0.9 | 0.00 | 0.00 | 0.00 | 63 | 1013.1 |
| 20260509114255 | 54 | 150 | 0.0 | 1.7 | 0.00 | 0.00 | 0.00 | 64 | 1013.0 |
| 20260509113753 | 54 | 119 | 1.7 | 1.7 | 0.00 | 0.00 | 0.00 | 64 | 1012.9 |
| 20260509113250 | 53 | 120 | 0.0 | 2.6 | 0.00 | 0.00 | 0.00 | 64 | 1013.1 |
| 20260509112747 | 53 | 117 | 0.0 | 1.7 | 0.00 | 0.00 | 0.00 | 64 | 1013.1 |
| 20260509112244 | 53 | 352 | 0.9 | 1.7 | 0.00 | 0.00 | 0.00 | 64 | 1013.1 |
| 20260509111742 | 53 | 118 | 0.0 | 1.7 | 0.00 | 0.00 | 0.00 | 66 | 1013.1 |
| 20260509111238 | 53 | 134 | 1.7 | 2.6 | 0.00 | 0.00 | 0.00 | 66 | 1013.0 |
| 20260509110735 | 52 | 152 | 1.7 | 1.7 | 0.00 | 0.00 | 0.00 | 67 | 1012.8 |
| 20260509110232 | 52 | 165 | 1.7 | 2.6 | 0.00 | 0.00 | 0.00 | 68 | 1013.0 |
| 20260509105730 | 52 | 142 | 0.9 | 0.9 | 0.00 | 0.00 | 0.00 | 68 | 1012.8 |
| 20260509105227 | 51 | 118 | 0.9 | 1.7 | 0.00 | 0.00 | 0.00 | 68 | 1012.9 |
| 20260509104724 | 51 | 156 | 0.0 | 1.7 | 0.00 | 0.00 | 0.00 | 67 | 1012.8 |
| 20260509104221 | 51 | 189 | 0.0 | 0.9 | 0.00 | 0.00 | 0.00 | 67 | 1013.1 |
| 20260509103719 | 51 | 95 | 0.0 | 0.9 | 0.00 | 0.00 | 0.00 | 67 | 1012.9 |
| 20260509103216 | 51 | 130 | 0.0 | 1.7 | 0.00 | 0.00 | 0.00 | 67 | 1013.0 |
| 20260509102714 | 51 | 126 | 0.0 | 1.7 | 0.00 | 0.00 | 0.00 | 66 | 1012.9 |
| 20260509102211 | 51 | 74 | 0.0 | 0.9 | 0.00 | 0.00 | 0.00 | 66 | 1012.9 |
| 20260509101707 | 51 | 172 | 0.0 | 1.7 | 0.00 | 0.00 | 0.00 | 66 | 1013.1 |
| 20260509101203 | 51 | 144 | 0.9 | 1.7 | 0.00 | 0.00 | 0.00 | 66 | 1012.9 |
| 20260509100701 | 51 | 91 | 0.0 | 1.7 | 0.00 | 0.00 | 0.00 | 65 | 1012.8 |
| 20260509100158 | 51 | 138 | 0.0 | 0.9 | 0.00 | 0.00 | 0.00 | 65 | 1012.8 |
| 20260509095655 | 51 | 196 | 0.0 | 1.7 | 0.00 | 0.00 | 0.00 | 65 | 1013.0 |
| 20260509095152 | 51 | 161 | 0.0 | 1.7 | 0.00 | 0.00 | 0.00 | 65 | 1012.8 |
| 20260509094649 | 51 | 120 | 0.9 | 1.7 | 0.00 | 0.00 | 0.00 | 65 | 1013.0 |
| 20260509094145 | 52 | 156 | 1.7 | 1.7 | 0.00 | 0.00 | 0.00 | 64 | 1012.8 |
| 20260509093644 | 52 | 144 | 0.9 | 1.7 | 0.00 | 0.00 | 0.00 | 64 | 1012.9 |
| 20260509093141 | 52 | 147 | 0.0 | 1.7 | 0.00 | 0.00 | 0.00 | 63 | 1012.9 |
| 20260509092639 | 52 | 152 | 0.0 | 1.7 | 0.00 | 0.00 | 0.00 | 63 | 1013.1 |
| 20260509092137 | 52 | 160 | 0.9 | 1.7 | 0.00 | 0.00 | 0.00 | 62 | 1013.0 |
| 20260509091635 | 52 | 160 | 0.9 | 1.7 | 0.00 | 0.00 | 0.00 | 61 | 1013.0 |
| 20260509091130 | 52 | 167 | 0.9 | 1.7 | 0.00 | 0.00 | 0.00 | 60 | 1013.1 |
| 20260509090628 | 52 | 151 | 1.7 | 1.7 | 0.00 | 0.00 | 0.00 | 61 | 1013.3 |
| 20260509090126 | 52 | 125 | 1.7 | 2.6 | 0.00 | 0.00 | 0.00 | 60 | 1013.0 |
| 20260509085623 | 52 | 123 | 0.9 | 1.7 | 0.00 | 0.00 | 0.00 | 61 | 1012.9 |
| 20260509085119 | 52 | 160 | 0.0 | 1.7 | 0.00 | 0.00 | 0.00 | 62 | 1013.0 |
| 20260509084616 | 52 | 158 | 1.7 | 1.7 | 0.00 | 0.00 | 0.00 | 62 | 1013.3 |
| 20260509084113 | 52 | 157 | 1.7 | 2.6 | 0.00 | 0.00 | 0.00 | 61 | 1013.2 |
| 20260509083611 | 52 | 184 | 0.9 | 1.7 | 0.00 | 0.00 | 0.00 | 61 | 1013.2 |
| 20260509083107 | 52 | 159 | 0.0 | 1.7 | 0.00 | 0.00 | 0.00 | 61 | 1013.2 |
| 20260509082605 | 53 | 142 | 1.7 | 1.7 | 0.00 | 0.00 | 0.00 | 61 | 1013.4 |
| 20260509082101 | 53 | 128 | 0.9 | 0.9 | 0.00 | 0.00 | 0.00 | 60 | 1013.2 |
| 20260509081558 | 53 | 158 | 0.9 | 1.7 | 0.00 | 0.00 | 0.00 | 60 | 1013.3 |
| 20260509081055 | 53 | 146 | 1.7 | 1.7 | 0.00 | 0.00 | 0.00 | 60 | 1013.1 |
| 20260509080553 | 53 | 148 | 1.7 | 1.7 | 0.00 | 0.00 | 0.00 | 61 | 1013.3 |
| 20260509080051 | 53 | 158 | 0.0 | 1.7 | 0.00 | 0.00 | 0.00 | 62 | 1013.5 |
| 20260509075548 | 53 | 158 | 0.0 | 0.9 | 0.00 | 0.00 | 0.00 | 61 | 1013.4 |
| 20260509075046 | 54 | 168 | 0.0 | 0.0 | 0.00 | 0.00 | 0.00 | 61 | 1013.5 |
| 20260509074543 | 54 | 134 | 0.0 | 0.0 | 0.00 | 0.00 | 0.00 | 58 | 1013.3 |
| 20260509074039 | 54 | 134 | 0.0 | 0.0 | 0.00 | 0.00 | 0.00 | 58 | 1013.3 |
| 20260509073536 | 54 | 134 | 0.0 | 0.0 | 0.00 | 0.00 | 0.00 | 57 | 1013.5 |
| 20260509073032 | 54 | 251 | 0.0 | 0.0 | 0.00 | 0.00 | 0.00 | 55 | 1013.6 |
| 20260509072529 | 54 | 251 | 0.0 | 0.0 | 0.00 | 0.00 | 0.00 | 55 | 1013.5 |
| 20260509072026 | 55 | 65 | 0.0 | 0.0 | 0.00 | 0.00 | 0.00 | 56 | 1013.4 |
| 20260509071522 | 55 | 195 | 0.0 | 0.0 | 0.00 | 0.00 | 0.00 | 56 | 1013.5 |
| 20260509071020 | 55 | 166 | 0.0 | 0.0 | 0.00 | 0.00 | 0.00 | 56 | 1013.3 |
| 20260509070517 | 55 | 187 | 0.0 | 0.9 | 0.00 | 0.00 | 0.00 | 56 | 1013.6 |
| 20260509070014 | 55 | 223 | 0.0 | 0.9 | 0.00 | 0.00 | 0.00 | 56 | 1013.7 |
| 20260509065509 | 55 | 220 | 0.0 | 0.9 | 0.00 | 0.00 | 0.00 | 55 | 1013.8 |
| 20260509065005 | 55 | 207 | 0.0 | 0.9 | 0.00 | 0.00 | 0.00 | 53 | 1013.9 |
| 20260509064503 | 55 | 220 | 0.0 | 0.9 | 0.00 | 0.00 | 0.00 | 53 | 1013.8 |
| 20260509064001 | 55 | 254 | 0.0 | 0.9 | 0.00 | 0.00 | 0.00 | 53 | 1013.9 |
| 20260509063456 | 55 | 219 | 0.9 | 0.9 | 0.00 | 0.00 | 0.00 | 53 | 1013.7 |
| 20260509062953 | 55 | 261 | 0.0 | 0.0 | 0.00 | 0.00 | 0.00 | 53 | 1014.1 |
| 20260509062450 | 55 | 207 | 0.0 | 0.0 | 0.00 | 0.00 | 0.00 | 52 | 1013.7 |
| 20260509061948 | 55 | 330 | 0.0 | 0.0 | 0.00 | 0.00 | 0.00 | 53 | 1013.7 |
| 20260509061445 | 55 | 330 | 0.0 | 0.9 | 0.00 | 0.00 | 0.00 | 53 | 1013.9 |
| 20260509060942 | 56 | 81 | 0.0 | 0.9 | 0.00 | 0.00 | 0.00 | 51 | 1014.0 |
| 20260509060440 | 56 | 223 | 0.0 | 0.9 | 0.00 | 0.00 | 0.00 | 52 | 1014.3 |
| 20260509055935 | 56 | 191 | 0.0 | 0.9 | 0.00 | 0.00 | 0.00 | 52 | 1014.2 |
| 20260509055430 | 56 | 44 | 0.9 | 0.9 | 0.00 | 0.00 | 0.00 | 51 | 1014.3 |
| 20260509054927 | 57 | 113 | 1.7 | 1.7 | 0.00 | 0.00 | 0.00 | 50 | 1014.3 |
| 20260509054424 | 57 | 256 | 0.0 | 1.7 | 0.00 | 0.00 | 0.00 | 49 | 1014.1 |
| 20260509053922 | 57 | 261 | 0.0 | 5.2 | 0.00 | 0.00 | 0.00 | 49 | 1014.3 |
| 20260509053420 | 56 | 105 | 0.9 | 0.9 | 0.00 | 0.00 | 0.00 | 50 | 1013.8 |
| 20260509052917 | 56 | 84 | 0.0 | 0.0 | 0.00 | 0.00 | 0.00 | 49 | 1013.9 |
| 20260509052414 | 56 | 139 | 0.0 | 0.0 | 0.00 | 0.00 | 0.00 | 50 | 1014.2 |
| 20260509051913 | 56 | 217 | 1.7 | 1.7 | 0.00 | 0.00 | 0.00 | 50 | 1014.2 |
| 20260509051410 | 56 | 347 | 0.0 | 0.9 | 0.00 | 0.00 | 0.00 | 51 | 1014.1 |
| 20260509050907 | 56 | 336 | 0.0 | 1.7 | 0.00 | 0.00 | 0.00 | 51 | 1014.2 |
| 20260509050404 | 56 | 35 | 0.0 | 0.9 | 0.00 | 0.00 | 0.00 | 50 | 1014.2 |
| 20260509045900 | 56 | 94 | 0.0 | 0.0 | 0.00 | 0.00 | 0.00 | 51 | 1013.9 |
| 20260509045357 | 56 | 134 | 0.0 | 0.0 | 0.00 | 0.00 | 0.00 | 51 | 1014.1 |
| 20260509044854 | 56 | 92 | 0.9 | 1.7 | 0.00 | 0.00 | 0.00 | 50 | 1014.1 |
| 20260509044352 | 56 | 53 | 0.0 | 0.9 | 0.00 | 0.00 | 0.00 | 51 | 1014.0 |
| 20260509043849 | 56 | 251 | 0.0 | 0.0 | 0.00 | 0.00 | 0.00 | 49 | 1013.9 |